Time;durP1;ratioP1;P1;durP2;ratioP2;P2;SDS_P1;SDS_P2;PMS_P1;PMS_P2;Temp;Humidity;BMP_temperature;BMP_pressure;BME280_temperature;BME280_humidity;BME280_pressure;Samples;Min_cycle;Max_cycle;Signal;HPM_P1;HPM_P2
2022/12/14 00:46:49;;;;;;;16.57;9.60;;;4.40;99.90;;;;;;5155062;27;20635;-91
2022/12/14 00:49:21;;;;;;;10.97;8.90;;;4.40;99.90;;;;;;5152887;27;20189;-89
2022/12/14 00:51:52;;;;;;;16.53;9.97;;;4.40;99.90;;;;;;5151516;27;20190;-89
2022/12/14 00:54:23;;;;;;;12.97;9.53;;;4.40;99.90;;;;;;5155192;27;20185;-88
2022/12/14 00:56:54;;;;;;;11.90;8.60;;;4.40;99.90;;;;;;5146976;27;20219;-88
2022/12/14 00:59:25;;;;;;;11.93;9.23;;;4.40;99.90;;;;;;5144241;27;20223;-88
2022/12/14 01:01:58;;;;;;;12.60;9.80;;;4.50;99.90;;;;;;5141954;27;20231;-87
2022/12/14 01:04:30;;;;;;;12.53;9.47;;;4.50;99.90;;;;;;5127651;28;20202;-87
2022/12/14 01:07:02;;;;;;;9.20;7.53;;;4.50;99.90;;;;;;5127525;28;20202;-87
2022/12/14 01:09:34;;;;;;;10.00;7.77;;;4.50;99.90;;;;;;5129489;28;20198;-87
2022/12/14 01:12:07;;;;;;;11.60;7.97;;;4.60;99.90;;;;;;5144916;28;20198;-86
2022/12/14 01:14:41;;;;;;;11.03;7.93;;;4.60;99.90;;;;;;5144417;28;20218;-87
2022/12/14 01:17:15;;;;;;;10.17;7.90;;;4.60;99.90;;;;;;5143856;27;20220;-88
2022/12/14 01:19:46;;;;;;;10.07;7.40;;;4.60;99.90;;;;;;5137281;27;20246;-87
2022/12/14 01:22:18;;;;;;;10.13;7.63;;;4.50;99.90;;;;;;5135687;27;20202;-87
2022/12/14 01:24:50;;;;;;;9.03;6.93;;;4.50;99.90;;;;;;5143350;27;20257;-88
2022/12/14 01:27:23;;;;;;;8.27;6.67;;;4.50;99.90;;;;;;5137551;27;20199;-88
2022/12/14 01:29:55;;;;;;;7.80;6.63;;;4.50;99.90;;;;;;5126142;28;20314;-88
2022/12/14 01:32:31;;;;;;;9.50;6.73;;;4.50;99.90;;;;;;5167415;22;20533;-94
2022/12/14 01:35:03;;;;;;;12.57;6.77;;;4.60;99.90;;;;;;5137576;27;20202;-90
2022/12/14 01:37:34;;;;;;;8.40;5.87;;;4.60;99.90;;;;;;5136774;27;20205;-89
2022/12/14 01:40:06;;;;;;;9.63;5.97;;;4.60;99.90;;;;;;5140148;27;20233;-92
2022/12/14 01:42:38;;;;;;;9.00;6.03;;;4.50;99.90;;;;;;5141443;27;20299;-92
2022/12/14 01:45:20;;;;;;;9.77;6.43;;;4.50;99.90;;;;;;5144433;27;20226;-91
2022/12/14 01:47:58;;;;;;;9.17;6.20;;;4.60;99.90;;;;;;5141281;27;20249;-91
2022/12/14 01:50:35;;;;;;;9.37;6.80;;;4.60;99.90;;;;;;5139703;27;20217;-91
2022/12/14 01:53:10;;;;;;;9.87;6.10;;;4.60;99.90;;;;;;5123155;28;20562;-91
2022/12/14 01:55:44;;;;;;;7.30;5.70;;;4.50;99.90;;;;;;5137518;28;20197;-92
2022/12/14 01:58:20;;;;;;;9.10;5.47;;;4.50;99.90;;;;;;5124170;28;20350;-90
2022/12/14 02:00:56;;;;;;;7.77;5.63;;;4.50;99.90;;;;;;5115761;28;20223;-91
2022/12/14 02:03:34;;;;;;;7.47;5.90;;;4.50;99.90;;;;;;5130415;28;20243;-88
2022/12/14 02:06:08;;;;;;;8.33;6.23;;;4.50;99.90;;;;;;5125330;28;20329;-90
2022/12/14 02:08:43;;;;;;;8.07;6.73;;;4.50;99.90;;;;;;5118218;27;20194;-90
2022/12/14 02:11:16;;;;;;;7.60;6.73;;;4.50;99.90;;;;;;5126704;28;20202;-91
2022/12/14 02:13:48;;;;;;;9.80;7.17;;;4.60;99.90;;;;;;5120510;28;20199;-89
2022/12/14 02:16:20;;;;;;;11.07;7.73;;;4.60;99.90;;;;;;5128150;28;20277;-89
2022/12/14 02:18:55;;;;;;;11.23;6.33;;;4.50;99.90;;;;;;5112070;28;20210;-89
2022/12/14 02:21:35;;;;;;;8.67;7.27;;;4.50;99.90;;;;;;5126933;28;20203;-90
2022/12/14 02:24:34;;;;;;;11.23;6.90;;;4.50;99.90;;;;;;5128441;28;20252;-89
2022/12/14 02:27:17;;;;;;;8.00;5.50;;;4.50;99.90;;;;;;5092746;28;20231;-89
2022/12/14 02:30:18;;;;;;;7.83;5.57;;;4.60;99.90;;;;;;5107602;28;20250;-89
2022/12/14 02:33:35;;;;;;;6.37;5.40;;;4.60;99.90;;;;;;5108357;28;20210;-92
2022/12/14 02:36:21;;;;;;;5.80;5.20;;;4.50;99.90;;;;;;5111339;28;20228;-90
2022/12/14 02:39:05;;;;;;;6.37;5.30;;;4.50;99.90;;;;;;5107094;28;20199;-91
2022/12/14 02:41:42;;;;;;;7.43;5.10;;;4.50;99.90;;;;;;5109828;28;20261;-89
2022/12/14 02:44:26;;;;;;;7.60;5.77;;;4.50;99.90;;;;;;5109987;28;20215;-90
2022/12/14 02:47:04;;;;;;;7.97;5.70;;;4.50;99.90;;;;;;5105866;28;20226;-90
2022/12/14 02:49:55;;;;;;;7.77;5.83;;;4.50;99.90;;;;;;5105990;28;20203;-90
2022/12/14 02:52:41;;;;;;;10.77;6.43;;;4.40;99.90;;;;;;5115482;28;20269;-91
2022/12/14 02:55:18;;;;;;;7.10;5.53;;;4.40;99.90;;;;;;5105516;28;20231;-91
2022/12/14 02:57:55;;;;;;;7.17;5.87;;;4.40;99.90;;;;;;5104380;28;20262;-90
2022/12/14 03:00:28;;;;;;;8.93;6.60;;;4.50;99.90;;;;;;5109430;28;20235;-89
2022/12/14 03:02:59;;;;;;;8.80;6.80;;;4.40;99.90;;;;;;5103967;28;20190;-90
2022/12/14 03:05:35;;;;;;;9.07;7.40;;;4.50;99.90;;;;;;5102755;28;20218;-90
2022/12/14 03:08:13;;;;;;;9.37;7.37;;;4.50;99.90;;;;;;5101881;28;20272;-90
2022/12/14 03:10:50;;;;;;;8.80;6.97;;;4.40;99.90;;;;;;5116619;28;20191;-91
2022/12/14 03:13:25;;;;;;;10.57;6.70;;;4.40;99.90;;;;;;5121222;28;20238;-90
2022/12/14 03:16:01;;;;;;;9.90;6.80;;;4.40;99.90;;;;;;5114218;28;20203;-89
2022/12/14 03:18:37;;;;;;;9.30;6.87;;;4.50;99.90;;;;;;5104183;28;20211;-88
2022/12/14 03:21:11;;;;;;;8.90;7.20;;;4.50;99.90;;;;;;5099141;28;20203;-89
2022/12/14 03:23:47;;;;;;;9.50;6.87;;;4.40;99.90;;;;;;5099327;28;20238;-90
2022/12/14 03:26:26;;;;;;;11.73;7.40;;;4.40;99.90;;;;;;5107649;28;20253;-91
2022/12/14 03:29:04;;;;;;;6.70;6.00;;;4.40;99.90;;;;;;5095906;28;20728;-90
2022/12/14 03:31:45;;;;;;;7.17;6.37;;;4.40;99.90;;;;;;5107145;28;20244;-90
2022/12/14 03:34:21;;;;;;;7.10;6.07;;;4.40;99.90;;;;;;5102305;28;20207;-89
2022/12/14 03:37:02;;;;;;;7.60;6.60;;;4.40;99.90;;;;;;5092773;28;20213;-89
2022/12/14 03:39:38;;;;;;;9.43;6.47;;;4.40;99.90;;;;;;5098569;28;20214;-90
2022/12/14 03:42:19;;;;;;;8.67;6.77;;;4.30;99.90;;;;;;5111461;28;20206;-88
2022/12/14 03:45:01;;;;;;;8.83;7.13;;;4.30;99.90;;;;;;5115891;28;20210;-90
2022/12/14 03:47:54;;;;;;;9.50;6.10;;;4.30;99.90;;;;;;5092949;28;20562;-89
2022/12/14 03:50:34;;;;;;;8.60;6.27;;;4.30;99.90;;;;;;5107631;28;20204;-90
2022/12/14 03:53:14;;;;;;;8.67;6.80;;;4.30;99.90;;;;;;5093399;28;20226;-91
2022/12/14 03:56:00;;;;;;;7.20;5.97;;;4.30;99.90;;;;;;5095520;28;20207;-90
2022/12/14 03:58:40;;;;;;;8.80;6.27;;;4.30;99.90;;;;;;5115426;28;20201;-89
2022/12/14 04:01:17;;;;;;;7.20;5.93;;;4.30;99.90;;;;;;5112655;28;20202;-90
2022/12/14 04:04:02;;;;;;;7.40;6.07;;;4.30;99.90;;;;;;5098040;28;20236;-90
2022/12/14 04:06:46;;;;;;;7.70;6.10;;;4.40;99.90;;;;;;5105380;28;20250;-90
2022/12/14 04:09:28;;;;;;;6.97;5.93;;;4.40;99.90;;;;;;5114751;28;20203;-90
2022/12/14 04:20:45;;;;;;;8.10;6.10;;;4.40;99.90;;;;;;5097351;28;20203;-89
2022/12/14 04:26:03;;;;;;;6.63;5.63;;;4.40;99.90;;;;;;5098515;28;20218;-89
2022/12/14 04:26:28;;;;;;;8.43;5.83;;;4.40;99.90;;;;;;5106059;28;20294;-90
2022/12/14 04:31:59;;;;;;;6.80;6.07;;;4.30;99.90;;;;;;5099441;28;20215;-89
2022/12/14 04:34:34;;;;;;;7.87;5.60;;;4.30;99.90;;;;;;5098631;28;20289;-89
2022/12/14 04:37:10;;;;;;;9.77;6.67;;;4.30;99.90;;;;;;5103705;28;20199;-89
2022/12/14 04:39:49;;;;;;;7.60;6.80;;;4.30;99.90;;;;;;5094955;28;20202;-90
2022/12/14 04:42:25;;;;;;;10.73;7.10;;;4.30;99.90;;;;;;5096364;28;20230;-90
2022/12/14 04:45:03;;;;;;;8.30;6.87;;;4.40;99.90;;;;;;5105075;28;20194;-88
2022/12/14 04:47:41;;;;;;;6.50;5.83;;;4.30;99.90;;;;;;5096885;28;20254;-90
2022/12/14 04:50:19;;;;;;;10.30;6.93;;;4.40;99.90;;;;;;5097064;28;20232;-90
2022/12/14 04:52:58;;;;;;;7.17;6.47;;;4.40;99.90;;;;;;5096543;28;20202;-90
2022/12/14 04:55:37;;;;;;;8.17;6.67;;;4.40;99.90;;;;;;5099524;28;20260;-90
2022/12/14 04:58:14;;;;;;;8.17;6.77;;;4.40;99.90;;;;;;5094402;28;20292;-89
2022/12/14 05:01:09;;;;;;;8.17;7.10;;;4.30;99.90;;;;;;5098321;28;20260;-89
2022/12/14 05:03:53;;;;;;;7.40;6.70;;;4.30;99.90;;;;;;5096660;28;20203;-89
2022/12/14 05:06:30;;;;;;;8.00;7.20;;;4.40;99.90;;;;;;5098357;28;20312;-89
2022/12/14 05:09:14;;;;;;;9.03;7.00;;;4.40;99.90;;;;;;5098118;28;20203;-89
2022/12/14 05:11:52;;;;;;;8.63;6.77;;;4.40;99.90;;;;;;5088147;28;20211;-89
2022/12/14 05:14:31;;;;;;;8.57;7.17;;;4.40;99.90;;;;;;5094821;28;20203;-89
2022/12/14 05:17:07;;;;;;;6.80;6.10;;;4.40;99.90;;;;;;5098884;28;20271;-89
2022/12/14 05:19:47;;;;;;;10.30;6.57;;;4.40;99.90;;;;;;5100946;28;20267;-91
2022/12/14 05:22:21;;;;;;;6.70;5.90;;;4.40;99.90;;;;;;5111616;28;20285;-89
2022/12/14 05:24:52;;;;;;;7.03;5.70;;;4.40;99.90;;;;;;5115432;28;20276;-88
2022/12/14 05:27:23;;;;;;;8.47;5.47;;;4.40;99.90;;;;;;5115167;28;20219;-89
2022/12/14 05:29:54;;;;;;;7.47;5.90;;;4.40;99.90;;;;;;5095592;28;20648;-88
2022/12/14 05:32:30;;;;;;;6.97;6.00;;;4.40;99.90;;;;;;5095675;28;20533;-90
2022/12/14 05:35:01;;;;;;;8.03;6.07;;;4.40;99.90;;;;;;5088629;28;20210;-88
2022/12/14 05:37:34;;;;;;;6.63;5.50;;;4.40;99.90;;;;;;5100898;28;20211;-88
2022/12/14 05:40:09;;;;;;;7.77;6.00;;;4.30;99.90;;;;;;5099183;28;20264;-88
2022/12/14 05:42:41;;;;;;;6.07;5.20;;;4.40;99.90;;;;;;5083189;28;20236;-88
2022/12/14 05:45:20;;;;;;;5.57;5.07;;;4.30;99.90;;;;;;5094506;28;20568;-88
2022/12/14 05:47:55;;;;;;;6.10;5.40;;;4.40;99.90;;;;;;5102299;28;20248;-87
2022/12/14 05:50:28;;;;;;;6.77;5.33;;;4.30;99.90;;;;;;5109926;28;20210;-87
2022/12/14 05:52:59;;;;;;;6.63;5.17;;;4.40;99.90;;;;;;5085865;28;20556;-88
2022/12/14 05:55:31;;;;;;;6.40;5.73;;;4.40;99.90;;;;;;5100948;28;20211;-88
2022/12/14 05:58:03;;;;;;;6.63;5.93;;;4.40;99.90;;;;;;5097745;28;20207;-88
2022/12/14 06:00:35;;;;;;;7.77;6.10;;;4.40;99.90;;;;;;5102401;28;20569;-88
2022/12/14 06:03:09;;;;;;;9.40;7.10;;;4.40;99.90;;;;;;5098289;28;20720;-89
2022/12/14 06:05:42;;;;;;;9.17;7.57;;;4.40;99.90;;;;;;5103326;28;20224;-88
2022/12/14 06:08:14;;;;;;;8.10;7.07;;;4.40;99.90;;;;;;5093002;28;20232;-89
2022/12/14 06:10:46;;;;;;;8.40;7.50;;;4.30;99.90;;;;;;5100920;28;20260;-89
2022/12/14 06:13:18;;;;;;;10.87;7.77;;;4.40;99.90;;;;;;5093547;28;20199;-89
2022/12/14 06:15:49;;;;;;;12.30;8.40;;;4.40;99.90;;;;;;5096291;28;20221;-89
2022/12/14 06:18:24;;;;;;;9.47;7.70;;;4.40;99.90;;;;;;5099846;28;20203;-88
2022/12/14 06:20:59;;;;;;;9.57;7.30;;;4.40;99.90;;;;;;5102517;28;20272;-89
2022/12/14 06:23:32;;;;;;;9.50;7.40;;;4.40;99.90;;;;;;5095074;28;20244;-89
2022/12/14 06:26:04;;;;;;;8.73;7.83;;;4.30;99.90;;;;;;5105415;28;20225;-89
2022/12/14 06:28:37;;;;;;;11.80;7.60;;;4.30;99.90;;;;;;5106015;28;20245;-88
2022/12/14 06:31:15;;;;;;;10.17;7.37;;;4.30;99.90;;;;;;5110252;28;20187;-89
2022/12/14 06:33:52;;;;;;;11.80;7.30;;;4.30;99.90;;;;;;5102805;28;20240;-87
2022/12/14 06:36:27;;;;;;;10.93;7.37;;;4.30;99.90;;;;;;5110396;28;20215;-88
2022/12/14 06:39:01;;;;;;;8.97;6.67;;;4.30;99.90;;;;;;5102384;28;20195;-88
2022/12/14 06:41:35;;;;;;;11.13;7.30;;;4.30;99.90;;;;;;5109268;28;20211;-87
2022/12/14 06:44:09;;;;;;;9.37;7.00;;;4.30;99.90;;;;;;5112477;28;20217;-88
2022/12/14 06:46:41;;;;;;;9.40;6.80;;;4.30;99.90;;;;;;5112150;28;20254;-89
2022/12/14 06:49:16;;;;;;;8.93;6.60;;;4.30;99.90;;;;;;5109659;28;20263;-88
2022/12/14 06:51:49;;;;;;;11.67;7.27;;;4.20;99.90;;;;;;5110014;28;20226;-87
2022/12/14 06:54:21;;;;;;;6.70;6.00;;;4.20;99.90;;;;;;5108851;28;20199;-88
2022/12/14 06:56:53;;;;;;;8.23;6.20;;;4.20;99.90;;;;;;5103725;28;20199;-88
2022/12/14 06:59:25;;;;;;;7.53;6.23;;;4.20;99.90;;;;;;5102980;28;20211;-89
2022/12/14 07:01:57;;;;;;;9.57;6.20;;;4.20;99.90;;;;;;5109367;28;20335;-89
2022/12/14 07:04:34;;;;;;;7.57;5.50;;;4.20;99.90;;;;;;5106969;28;20208;-89
2022/12/14 07:07:09;;;;;;;6.97;5.87;;;4.20;99.90;;;;;;5106787;28;20273;-88
2022/12/14 07:09:42;;;;;;;7.50;6.17;;;4.10;99.90;;;;;;5111270;28;20660;-88
2022/12/14 07:12:14;;;;;;;6.50;5.67;;;4.10;99.90;;;;;;5108797;28;20252;-89
2022/12/14 07:14:47;;;;;;;7.23;5.73;;;4.10;99.90;;;;;;5103496;28;20643;-89
2022/12/14 07:17:19;;;;;;;7.07;6.17;;;4.10;99.90;;;;;;5113663;28;20202;-89
2022/12/14 07:19:54;;;;;;;7.67;6.60;;;4.10;99.90;;;;;;5108057;28;20238;-90
2022/12/14 07:22:28;;;;;;;7.87;6.13;;;4.10;99.90;;;;;;5105320;28;20207;-90
2022/12/14 07:25:00;;;;;;;7.87;6.43;;;4.10;99.90;;;;;;5109327;28;20214;-89
2022/12/14 07:27:33;;;;;;;8.13;6.07;;;4.10;99.90;;;;;;5111275;28;20234;-89
2022/12/14 07:30:06;;;;;;;7.30;5.53;;;4.10;99.90;;;;;;5110945;28;20203;-89
2022/12/14 07:32:38;;;;;;;7.57;5.97;;;4.10;99.90;;;;;;5109765;28;20241;-89
2022/12/14 07:35:14;;;;;;;6.97;5.60;;;4.10;99.90;;;;;;5109812;28;20206;-89
2022/12/14 07:37:54;;;;;;;6.97;5.57;;;4.10;99.90;;;;;;5115496;28;20201;-89
2022/12/14 07:40:29;;;;;;;7.93;6.17;;;4.10;99.90;;;;;;5123236;28;20186;-89
2022/12/14 07:43:05;;;;;;;6.33;5.23;;;4.10;99.90;;;;;;5116337;28;20289;-90
2022/12/14 07:48:33;;;;;;;6.40;5.10;;;4.10;99.90;;;;;;5109093;28;20282;-90
2022/12/14 07:51:15;;;;;;;9.80;6.07;;;4.10;99.90;;;;;;5111506;28;20199;-89
2022/12/14 07:53:48;;;;;;;7.93;5.53;;;4.10;99.90;;;;;;5112335;28;20247;-89
2022/12/14 07:56:43;;;;;;;6.73;5.27;;;4.10;99.90;;;;;;5883433;22;20313;-89
2022/12/14 07:59:18;;;;;;;6.20;5.33;;;4.10;99.90;;;;;;5089210;28;20237;-89
2022/12/14 08:01:51;;;;;;;7.33;5.33;;;4.10;99.90;;;;;;5076769;28;20670;-88
2022/12/14 08:04:25;;;;;;;7.47;6.10;;;4.00;99.90;;;;;;5079394;28;20223;-90
2022/12/14 08:07:00;;;;;;;5.83;5.10;;;4.10;99.90;;;;;;5070879;28;20207;-90
2022/12/14 08:09:35;;;;;;;7.60;5.10;;;4.10;99.90;;;;;;5077741;28;20268;-89
2022/12/14 08:12:08;;;;;;;6.70;5.27;;;4.10;99.90;;;;;;5077979;28;20611;-89
2022/12/14 08:14:40;;;;;;;7.20;5.50;;;4.10;99.90;;;;;;5074315;28;20280;-89
2022/12/14 08:17:11;;;;;;;5.57;4.60;;;4.20;99.90;;;;;;5078354;28;20213;-90
2022/12/14 08:19:42;;;;;;;6.33;5.03;;;4.10;99.90;;;;;;5076511;28;20215;-89
2022/12/14 08:22:16;;;;;;;6.60;5.23;;;4.10;99.90;;;;;;5074976;28;20294;-89
2022/12/14 08:24:47;;;;;;;6.53;5.20;;;4.10;99.90;;;;;;5076824;28;20219;-90
2022/12/14 08:27:21;;;;;;;5.30;4.73;;;4.20;99.90;;;;;;5078346;28;20211;-89
2022/12/14 08:29:59;;;;;;;5.67;4.63;;;4.30;99.90;;;;;;5070589;28;20689;-89
2022/12/14 08:32:32;;;;;;;5.93;5.07;;;4.20;99.90;;;;;;5075589;28;20237;-89
2022/12/14 08:35:06;;;;;;;6.43;4.97;;;4.20;99.90;;;;;;5077101;28;20207;-88
2022/12/14 08:37:42;;;;;;;6.60;5.10;;;4.20;99.90;;;;;;5078230;28;20211;-89
2022/12/14 08:40:16;;;;;;;6.13;4.60;;;4.20;99.90;;;;;;5076144;28;20206;-88
2022/12/14 08:42:51;;;;;;;7.80;4.57;;;4.10;99.90;;;;;;5072906;28;20204;-89
